sensor_id;sensor_type;location;lat;lon;timestamp;P1;durP1;ratioP1;P2;durP2;ratioP2
14754;SDS011;7469;50.906;6.952;2023-03-23T00:00:56;1.50;;;1.40;;
14754;SDS011;7469;50.906;6.952;2023-03-23T00:03:23;3.67;;;1.50;;
14754;SDS011;7469;50.906;6.952;2023-03-23T00:05:51;5.13;;;1.40;;
14754;SDS011;7469;50.906;6.952;2023-03-23T00:08:19;0.97;;;0.87;;
14754;SDS011;7469;50.906;6.952;2023-03-23T00:10:50;2.50;;;0.77;;
14754;SDS011;7469;50.906;6.952;2023-03-23T00:13:17;2.53;;;1.07;;
14754;SDS011;7469;50.906;6.952;2023-03-23T00:15:45;1.30;;;1.00;;
14754;SDS011;7469;50.906;6.952;2023-03-23T00:18:14;2.10;;;1.03;;
14754;SDS011;7469;50.906;6.952;2023-03-23T00:20:47;1.10;;;1.00;;
14754;SDS011;7469;50.906;6.952;2023-03-23T00:23:14;1.23;;;1.10;;
14754;SDS011;7469;50.906;6.952;2023-03-23T00:25:46;1.10;;;1.00;;
14754;SDS011;7469;50.906;6.952;2023-03-23T00:28:14;1.17;;;1.07;;
14754;SDS011;7469;50.906;6.952;2023-03-23T00:30:41;1.67;;;1.10;;
14754;SDS011;7469;50.906;6.952;2023-03-23T00:33:10;1.27;;;0.80;;
14754;SDS011;7469;50.906;6.952;2023-03-23T00:35:39;0.80;;;0.77;;
14754;SDS011;7469;50.906;6.952;2023-03-23T00:38:09;2.70;;;0.90;;
14754;SDS011;7469;50.906;6.952;2023-03-23T00:40:36;1.53;;;0.67;;
14754;SDS011;7469;50.906;6.952;2023-03-23T00:43:04;0.83;;;0.83;;
14754;SDS011;7469;50.906;6.952;2023-03-23T00:45:31;2.67;;;1.27;;
14754;SDS011;7469;50.906;6.952;2023-03-23T00:48:00;1.80;;;1.03;;
14754;SDS011;7469;50.906;6.952;2023-03-23T00:50:29;4.63;;;0.80;;
14754;SDS011;7469;50.906;6.952;2023-03-23T00:52:56;0.90;;;0.90;;
14754;SDS011;7469;50.906;6.952;2023-03-23T00:55:23;1.27;;;0.87;;
14754;SDS011;7469;50.906;6.952;2023-03-23T00:57:50;1.10;;;1.10;;
14754;SDS011;7469;50.906;6.952;2023-03-23T01:00:20;0.83;;;0.83;;
14754;SDS011;7469;50.906;6.952;2023-03-23T01:02:48;1.77;;;1.00;;
14754;SDS011;7469;50.906;6.952;2023-03-23T01:05:16;0.93;;;0.93;;
14754;SDS011;7469;50.906;6.952;2023-03-23T01:07:44;1.27;;;1.00;;
14754;SDS011;7469;50.906;6.952;2023-03-23T01:10:11;1.17;;;1.07;;
14754;SDS011;7469;50.906;6.952;2023-03-23T01:12:41;2.33;;;1.23;;
14754;SDS011;7469;50.906;6.952;2023-03-23T01:15:12;2.37;;;0.97;;
14754;SDS011;7469;50.906;6.952;2023-03-23T01:17:42;1.13;;;1.00;;
14754;SDS011;7469;50.906;6.952;2023-03-23T01:20:10;1.23;;;0.93;;
14754;SDS011;7469;50.906;6.952;2023-03-23T01:22:38;1.57;;;0.87;;
14754;SDS011;7469;50.906;6.952;2023-03-23T01:25:06;1.00;;;1.00;;
14754;SDS011;7469;50.906;6.952;2023-03-23T01:27:34;1.10;;;1.00;;
14754;SDS011;7469;50.906;6.952;2023-03-23T01:30:01;4.10;;;0.90;;
14754;SDS011;7469;50.906;6.952;2023-03-23T01:32:28;1.10;;;0.90;;
14754;SDS011;7469;50.906;6.952;2023-03-23T01:34:57;1.23;;;0.93;;
14754;SDS011;7469;50.906;6.952;2023-03-23T01:37:24;0.90;;;0.90;;
14754;SDS011;7469;50.906;6.952;2023-03-23T01:39:52;1.63;;;1.20;;
14754;SDS011;7469;50.906;6.952;2023-03-23T01:42:21;0.80;;;0.80;;
14754;SDS011;7469;50.906;6.952;2023-03-23T01:47:54;1.57;;;1.10;;
14754;SDS011;7469;50.906;6.952;2023-03-23T01:50:33;1.70;;;0.90;;
14754;SDS011;7469;50.906;6.952;2023-03-23T01:53:04;1.53;;;1.00;;
14754;SDS011;7469;50.906;6.952;2023-03-23T01:55:34;1.50;;;0.93;;
14754;SDS011;7469;50.906;6.952;2023-03-23T01:58:03;2.47;;;1.10;;
14754;SDS011;7469;50.906;6.952;2023-03-23T02:00:32;2.50;;;1.07;;
14754;SDS011;7469;50.906;6.952;2023-03-23T02:03:02;1.70;;;1.00;;
14754;SDS011;7469;50.906;6.952;2023-03-23T02:05:31;1.30;;;1.17;;
14754;SDS011;7469;50.906;6.952;2023-03-23T02:08:03;1.77;;;1.10;;
14754;SDS011;7469;50.906;6.952;2023-03-23T02:10:34;2.00;;;1.30;;
14754;SDS011;7469;50.906;6.952;2023-03-23T02:13:02;1.80;;;1.10;;
14754;SDS011;7469;50.906;6.952;2023-03-23T02:15:33;1.33;;;1.23;;
14754;SDS011;7469;50.906;6.952;2023-03-23T02:18:23;2.60;;;1.30;;
14754;SDS011;7469;50.906;6.952;2023-03-23T02:21:13;1.73;;;1.43;;
14754;SDS011;7469;50.906;6.952;2023-03-23T02:23:58;1.23;;;1.10;;
14754;SDS011;7469;50.906;6.952;2023-03-23T02:26:50;1.93;;;1.20;;
14754;SDS011;7469;50.906;6.952;2023-03-23T02:29:41;1.33;;;1.23;;
14754;SDS011;7469;50.906;6.952;2023-03-23T02:32:32;2.47;;;1.53;;
14754;SDS011;7469;50.906;6.952;2023-03-23T02:35:24;2.13;;;1.50;;
14754;SDS011;7469;50.906;6.952;2023-03-23T02:37:56;1.60;;;1.50;;
14754;SDS011;7469;50.906;6.952;2023-03-23T02:40:28;1.63;;;1.23;;
14754;SDS011;7469;50.906;6.952;2023-03-23T02:43:01;2.13;;;1.53;;
14754;SDS011;7469;50.906;6.952;2023-03-23T02:45:30;1.20;;;1.10;;
14754;SDS011;7469;50.906;6.952;2023-03-23T02:47:59;0.80;;;0.80;;
14754;SDS011;7469;50.906;6.952;2023-03-23T02:50:30;1.17;;;1.07;;
14754;SDS011;7469;50.906;6.952;2023-03-23T02:52:59;1.60;;;0.97;;
14754;SDS011;7469;50.906;6.952;2023-03-23T02:55:27;1.37;;;0.90;;
14754;SDS011;7469;50.906;6.952;2023-03-23T02:57:55;2.90;;;1.10;;
14754;SDS011;7469;50.906;6.952;2023-03-23T03:00:22;2.67;;;1.00;;
14754;SDS011;7469;50.906;6.952;2023-03-23T03:02:50;1.00;;;1.00;;
14754;SDS011;7469;50.906;6.952;2023-03-23T03:05:28;1.27;;;1.17;;
14754;SDS011;7469;50.906;6.952;2023-03-23T03:08:08;1.10;;;0.97;;
14754;SDS011;7469;50.906;6.952;2023-03-23T03:10:44;2.37;;;1.10;;
14754;SDS011;7469;50.906;6.952;2023-03-23T03:13:20;1.53;;;1.20;;
14754;SDS011;7469;50.906;6.952;2023-03-23T03:15:56;1.80;;;1.07;;
14754;SDS011;7469;50.906;6.952;2023-03-23T03:18:27;1.20;;;1.10;;
14754;SDS011;7469;50.906;6.952;2023-03-23T03:21:01;0.90;;;0.90;;
14754;SDS011;7469;50.906;6.952;2023-03-23T03:23:31;0.90;;;0.90;;
14754;SDS011;7469;50.906;6.952;2023-03-23T03:26:00;1.20;;;0.93;;
14754;SDS011;7469;50.906;6.952;2023-03-23T03:28:30;1.13;;;0.73;;
14754;SDS011;7469;50.906;6.952;2023-03-23T03:30:58;5.10;;;1.03;;
14754;SDS011;7469;50.906;6.952;2023-03-23T03:33:30;0.80;;;0.80;;
14754;SDS011;7469;50.906;6.952;2023-03-23T03:36:00;1.80;;;0.90;;
14754;SDS011;7469;50.906;6.952;2023-03-23T03:38:40;1.67;;;0.70;;
14754;SDS011;7469;50.906;6.952;2023-03-23T03:41:07;0.70;;;0.70;;
14754;SDS011;7469;50.906;6.952;2023-03-23T03:43:34;1.93;;;0.90;;
14754;SDS011;7469;50.906;6.952;2023-03-23T03:46:01;1.30;;;0.90;;
14754;SDS011;7469;50.906;6.952;2023-03-23T03:48:28;0.90;;;0.90;;
14754;SDS011;7469;50.906;6.952;2023-03-23T03:50:55;1.77;;;0.87;;
14754;SDS011;7469;50.906;6.952;2023-03-23T03:53:24;1.57;;;0.93;;
14754;SDS011;7469;50.906;6.952;2023-03-23T03:55:50;0.73;;;0.73;;
14754;SDS011;7469;50.906;6.952;2023-03-23T03:58:20;1.60;;;0.93;;
14754;SDS011;7469;50.906;6.952;2023-03-23T04:00:47;1.13;;;0.90;;
14754;SDS011;7469;50.906;6.952;2023-03-23T04:03:14;0.87;;;0.87;;
14754;SDS011;7469;50.906;6.952;2023-03-23T04:05:41;1.10;;;1.00;;
14754;SDS011;7469;50.906;6.952;2023-03-23T04:08:09;0.67;;;0.67;;
14754;SDS011;7469;50.906;6.952;2023-03-23T04:10:38;1.07;;;1.00;;
14754;SDS011;7469;50.906;6.952;2023-03-23T04:13:05;1.70;;;1.00;;
14754;SDS011;7469;50.906;6.952;2023-03-23T04:15:32;1.00;;;0.90;;
14754;SDS011;7469;50.906;6.952;2023-03-23T04:17:59;3.87;;;1.20;;
14754;SDS011;7469;50.906;6.952;2023-03-23T04:20:26;0.90;;;0.90;;
14754;SDS011;7469;50.906;6.952;2023-03-23T04:22:53;1.00;;;1.00;;
14754;SDS011;7469;50.906;6.952;2023-03-23T04:25:20;1.00;;;1.00;;
14754;SDS011;7469;50.906;6.952;2023-03-23T04:27:49;0.93;;;0.93;;
14754;SDS011;7469;50.906;6.952;2023-03-23T04:30:18;0.83;;;0.83;;
14754;SDS011;7469;50.906;6.952;2023-03-23T04:32:47;1.00;;;1.00;;
14754;SDS011;7469;50.906;6.952;2023-03-23T04:35:17;0.97;;;0.97;;
14754;SDS011;7469;50.906;6.952;2023-03-23T04:37:45;0.90;;;0.90;;
14754;SDS011;7469;50.906;6.952;2023-03-23T04:40:13;1.10;;;1.00;;
14754;SDS011;7469;50.906;6.952;2023-03-23T04:42:41;1.30;;;1.20;;
14754;SDS011;7469;50.906;6.952;2023-03-23T04:45:12;1.87;;;1.00;;
14754;SDS011;7469;50.906;6.952;2023-03-23T04:47:41;1.17;;;1.07;;
14754;SDS011;7469;50.906;6.952;2023-03-23T04:50:18;1.30;;;1.20;;
14754;SDS011;7469;50.906;6.952;2023-03-23T04:52:49;1.50;;;1.40;;
14754;SDS011;7469;50.906;6.952;2023-03-23T04:55:17;1.50;;;1.10;;
14754;SDS011;7469;50.906;6.952;2023-03-23T04:57:45;1.23;;;1.00;;
14754;SDS011;7469;50.906;6.952;2023-03-23T05:00:14;1.20;;;1.00;;
14754;SDS011;7469;50.906;6.952;2023-03-23T05:02:42;1.27;;;1.10;;
14754;SDS011;7469;50.906;6.952;2023-03-23T05:05:10;1.53;;;1.40;;
14754;SDS011;7469;50.906;6.952;2023-03-23T05:07:38;1.60;;;1.50;;
14754;SDS011;7469;50.906;6.952;2023-03-23T05:10:06;1.40;;;1.30;;
14754;SDS011;7469;50.906;6.952;2023-03-23T05:12:35;2.30;;;1.40;;
14754;SDS011;7469;50.906;6.952;2023-03-23T05:15:02;2.83;;;1.40;;
14754;SDS011;7469;50.906;6.952;2023-03-23T05:17:32;2.03;;;1.30;;
14754;SDS011;7469;50.906;6.952;2023-03-23T05:19:59;1.33;;;1.23;;
14754;SDS011;7469;50.906;6.952;2023-03-23T05:22:28;1.93;;;1.17;;
14754;SDS011;7469;50.906;6.952;2023-03-23T05:24:57;1.47;;;1.37;;
14754;SDS011;7469;50.906;6.952;2023-03-23T05:27:24;1.67;;;1.53;;
14754;SDS011;7469;50.906;6.952;2023-03-23T05:29:55;1.40;;;1.30;;
14754;SDS011;7469;50.906;6.952;2023-03-23T05:32:23;1.43;;;1.33;;
14754;SDS011;7469;50.906;6.952;2023-03-23T05:34:55;1.40;;;1.30;;
14754;SDS011;7469;50.906;6.952;2023-03-23T05:37:22;2.33;;;1.77;;
14754;SDS011;7469;50.906;6.952;2023-03-23T05:39:49;1.30;;;1.20;;
14754;SDS011;7469;50.906;6.952;2023-03-23T05:42:18;2.87;;;1.73;;
14754;SDS011;7469;50.906;6.952;2023-03-23T05:44:45;2.43;;;1.40;;
14754;SDS011;7469;50.906;6.952;2023-03-23T05:47:13;1.50;;;1.30;;
14754;SDS011;7469;50.906;6.952;2023-03-23T05:49:40;2.30;;;1.47;;
14754;SDS011;7469;50.906;6.952;2023-03-23T05:52:08;1.87;;;1.63;;
14754;SDS011;7469;50.906;6.952;2023-03-23T05:54:35;1.77;;;1.43;;
14754;SDS011;7469;50.906;6.952;2023-03-23T05:57:02;1.53;;;1.20;;
14754;SDS011;7469;50.906;6.952;2023-03-23T05:59:30;1.40;;;1.30;;
14754;SDS011;7469;50.906;6.952;2023-03-23T06:01:58;1.83;;;1.40;;
14754;SDS011;7469;50.906;6.952;2023-03-23T06:04:25;1.60;;;1.50;;
14754;SDS011;7469;50.906;6.952;2023-03-23T06:06:52;1.53;;;1.23;;
14754;SDS011;7469;50.906;6.952;2023-03-23T06:09:21;3.23;;;1.50;;
14754;SDS011;7469;50.906;6.952;2023-03-23T06:11:50;2.43;;;1.47;;
14754;SDS011;7469;50.906;6.952;2023-03-23T06:14:17;1.50;;;1.40;;
14754;SDS011;7469;50.906;6.952;2023-03-23T06:16:43;3.33;;;1.90;;
14754;SDS011;7469;50.906;6.952;2023-03-23T06:19:10;1.60;;;1.50;;
14754;SDS011;7469;50.906;6.952;2023-03-23T06:21:37;3.20;;;1.50;;
14754;SDS011;7469;50.906;6.952;2023-03-23T06:24:05;4.00;;;1.80;;
14754;SDS011;7469;50.906;6.952;2023-03-23T06:26:34;1.53;;;1.33;;
14754;SDS011;7469;50.906;6.952;2023-03-23T06:29:02;4.03;;;1.60;;
14754;SDS011;7469;50.906;6.952;2023-03-23T06:31:36;1.47;;;1.30;;
14754;SDS011;7469;50.906;6.952;2023-03-23T06:34:04;2.30;;;1.50;;
14754;SDS011;7469;50.906;6.952;2023-03-23T06:36:31;2.00;;;0.97;;
14754;SDS011;7469;50.906;6.952;2023-03-23T06:38:58;1.70;;;1.50;;
14754;SDS011;7469;50.906;6.952;2023-03-23T06:41:24;1.30;;;1.20;;
14754;SDS011;7469;50.906;6.952;2023-03-23T06:43:56;1.10;;;1.00;;
14754;SDS011;7469;50.906;6.952;2023-03-23T06:46:23;4.00;;;1.27;;
14754;SDS011;7469;50.906;6.952;2023-03-23T06:48:50;2.30;;;1.40;;
14754;SDS011;7469;50.906;6.952;2023-03-23T06:51:17;2.30;;;1.10;;
14754;SDS011;7469;50.906;6.952;2023-03-23T06:53:44;2.20;;;1.43;;
14754;SDS011;7469;50.906;6.952;2023-03-23T06:56:13;3.40;;;1.30;;
14754;SDS011;7469;50.906;6.952;2023-03-23T06:58:40;1.33;;;0.90;;
14754;SDS011;7469;50.906;6.952;2023-03-23T07:01:12;2.97;;;1.17;;
14754;SDS011;7469;50.906;6.952;2023-03-23T07:03:40;3.47;;;1.27;;
14754;SDS011;7469;50.906;6.952;2023-03-23T07:06:08;1.93;;;1.53;;
14754;SDS011;7469;50.906;6.952;2023-03-23T07:08:35;1.77;;;1.20;;
14754;SDS011;7469;50.906;6.952;2023-03-23T07:11:03;2.23;;;1.30;;
14754;SDS011;7469;50.906;6.952;2023-03-23T07:13:30;1.80;;;1.03;;
14754;SDS011;7469;50.906;6.952;2023-03-23T07:15:57;2.50;;;1.10;;
14754;SDS011;7469;50.906;6.952;2023-03-23T07:18:26;1.30;;;0.77;;
14754;SDS011;7469;50.906;6.952;2023-03-23T07:20:53;1.20;;;1.10;;
14754;SDS011;7469;50.906;6.952;2023-03-23T07:23:20;2.20;;;1.10;;
14754;SDS011;7469;50.906;6.952;2023-03-23T07:25:47;1.17;;;1.10;;
14754;SDS011;7469;50.906;6.952;2023-03-23T07:28:14;1.20;;;1.10;;
14754;SDS011;7469;50.906;6.952;2023-03-23T07:30:41;1.33;;;1.03;;
14754;SDS011;7469;50.906;6.952;2023-03-23T07:33:08;2.87;;;1.30;;
14754;SDS011;7469;50.906;6.952;2023-03-23T07:35:37;1.53;;;0.90;;
14754;SDS011;7469;50.906;6.952;2023-03-23T07:38:05;1.50;;;1.10;;
14754;SDS011;7469;50.906;6.952;2023-03-23T07:40:32;1.07;;;0.80;;
14754;SDS011;7469;50.906;6.952;2023-03-23T07:43:00;1.27;;;1.00;;
14754;SDS011;7469;50.906;6.952;2023-03-23T07:45:28;1.57;;;1.20;;
14754;SDS011;7469;50.906;6.952;2023-03-23T07:47:55;1.47;;;1.00;;
14754;SDS011;7469;50.906;6.952;2023-03-23T07:50:22;1.03;;;0.97;;
14754;SDS011;7469;50.906;6.952;2023-03-23T07:52:51;1.67;;;1.20;;
14754;SDS011;7469;50.906;6.952;2023-03-23T07:55:20;1.03;;;0.97;;
14754;SDS011;7469;50.906;6.952;2023-03-23T07:57:50;0.83;;;0.83;;
14754;SDS011;7469;50.906;6.952;2023-03-23T08:00:19;1.20;;;1.07;;
14754;SDS011;7469;50.906;6.952;2023-03-23T08:02:49;1.27;;;1.00;;
14754;SDS011;7469;50.906;6.952;2023-03-23T08:05:17;2.60;;;1.10;;
14754;SDS011;7469;50.906;6.952;2023-03-23T08:07:45;2.17;;;1.03;;
14754;SDS011;7469;50.906;6.952;2023-03-23T08:10:14;1.07;;;1.00;;
14754;SDS011;7469;50.906;6.952;2023-03-23T08:12:42;3.47;;;1.17;;
14754;SDS011;7469;50.906;6.952;2023-03-23T08:15:11;1.27;;;1.00;;
14754;SDS011;7469;50.906;6.952;2023-03-23T08:17:39;2.30;;;1.20;;
14754;SDS011;7469;50.906;6.952;2023-03-23T08:20:07;1.27;;;0.97;;
14754;SDS011;7469;50.906;6.952;2023-03-23T08:22:38;2.67;;;1.07;;
14754;SDS011;7469;50.906;6.952;2023-03-23T08:25:09;3.93;;;1.10;;
14754;SDS011;7469;50.906;6.952;2023-03-23T08:27:38;2.93;;;1.10;;
14754;SDS011;7469;50.906;6.952;2023-03-23T08:30:09;6.13;;;1.40;;
14754;SDS011;7469;50.906;6.952;2023-03-23T08:32:37;3.00;;;1.00;;
14754;SDS011;7469;50.906;6.952;2023-03-23T08:35:05;2.50;;;1.03;;
14754;SDS011;7469;50.906;6.952;2023-03-23T08:37:34;2.60;;;1.30;;
14754;SDS011;7469;50.906;6.952;2023-03-23T08:40:01;0.60;;;0.60;;
14754;SDS011;7469;50.906;6.952;2023-03-23T08:42:34;2.13;;;1.10;;
14754;SDS011;7469;50.906;6.952;2023-03-23T08:45:03;1.73;;;1.00;;
14754;SDS011;7469;50.906;6.952;2023-03-23T08:47:32;6.80;;;1.53;;
14754;SDS011;7469;50.906;6.952;2023-03-23T08:49:59;4.07;;;1.10;;
14754;SDS011;7469;50.906;6.952;2023-03-23T08:52:27;3.07;;;1.27;;
14754;SDS011;7469;50.906;6.952;2023-03-23T08:54:54;3.73;;;1.07;;
14754;SDS011;7469;50.906;6.952;2023-03-23T08:57:22;3.77;;;1.27;;
14754;SDS011;7469;50.906;6.952;2023-03-23T08:59:49;2.13;;;1.20;;
14754;SDS011;7469;50.906;6.952;2023-03-23T09:02:17;3.43;;;1.30;;
14754;SDS011;7469;50.906;6.952;2023-03-23T09:04:44;2.37;;;0.90;;
14754;SDS011;7469;50.906;6.952;2023-03-23T09:07:12;2.43;;;1.10;;
14754;SDS011;7469;50.906;6.952;2023-03-23T09:09:40;1.97;;;1.10;;
14754;SDS011;7469;50.906;6.952;2023-03-23T09:12:07;2.20;;;1.20;;
14754;SDS011;7469;50.906;6.952;2023-03-23T09:14:36;2.17;;;0.90;;
14754;SDS011;7469;50.906;6.952;2023-03-23T09:17:03;2.43;;;1.23;;
14754;SDS011;7469;50.906;6.952;2023-03-23T09:19:33;2.77;;;1.57;;
14754;SDS011;7469;50.906;6.952;2023-03-23T09:22:01;1.03;;;0.83;;
14754;SDS011;7469;50.906;6.952;2023-03-23T09:24:29;4.80;;;1.50;;
14754;SDS011;7469;50.906;6.952;2023-03-23T09:26:56;4.37;;;1.43;;
14754;SDS011;7469;50.906;6.952;2023-03-23T09:29:24;1.63;;;1.20;;
14754;SDS011;7469;50.906;6.952;2023-03-23T09:31:51;3.17;;;1.37;;
14754;SDS011;7469;50.906;6.952;2023-03-23T09:34:19;4.13;;;1.40;;
14754;SDS011;7469;50.906;6.952;2023-03-23T09:36:47;2.17;;;1.50;;
14754;SDS011;7469;50.906;6.952;2023-03-23T09:39:15;2.63;;;1.50;;
14754;SDS011;7469;50.906;6.952;2023-03-23T09:41:50;2.73;;;1.07;;
14754;SDS011;7469;50.906;6.952;2023-03-23T09:44:36;3.03;;;1.20;;
14754;SDS011;7469;50.906;6.952;2023-03-23T09:47:13;3.23;;;1.10;;
14754;SDS011;7469;50.906;6.952;2023-03-23T09:49:48;4.90;;;1.30;;
14754;SDS011;7469;50.906;6.952;2023-03-23T09:52:21;4.27;;;1.73;;
14754;SDS011;7469;50.906;6.952;2023-03-23T09:54:49;5.30;;;1.67;;
14754;SDS011;7469;50.906;6.952;2023-03-23T09:57:19;3.87;;;1.20;;
14754;SDS011;7469;50.906;6.952;2023-03-23T09:59:54;4.23;;;1.27;;
14754;SDS011;7469;50.906;6.952;2023-03-23T10:02:27;4.83;;;1.60;;
14754;SDS011;7469;50.906;6.952;2023-03-23T10:04:58;3.40;;;1.90;;
14754;SDS011;7469;50.906;6.952;2023-03-23T10:07:47;5.90;;;1.43;;
14754;SDS011;7469;50.906;6.952;2023-03-23T10:10:14;2.50;;;1.30;;
14754;SDS011;7469;50.906;6.952;2023-03-23T10:12:43;2.13;;;1.07;;
14754;SDS011;7469;50.906;6.952;2023-03-23T10:15:16;4.17;;;1.30;;
14754;SDS011;7469;50.906;6.952;2023-03-23T10:17:46;1.80;;;1.20;;
14754;SDS011;7469;50.906;6.952;2023-03-23T10:20:21;1.83;;;1.00;;
14754;SDS011;7469;50.906;6.952;2023-03-23T10:23:13;2.73;;;1.20;;
14754;SDS011;7469;50.906;6.952;2023-03-23T10:25:51;1.63;;;0.90;;
14754;SDS011;7469;50.906;6.952;2023-03-23T10:28:32;1.23;;;0.70;;
14754;SDS011;7469;50.906;6.952;2023-03-23T10:31:02;1.80;;;0.87;;
14754;SDS011;7469;50.906;6.952;2023-03-23T10:33:33;1.77;;;0.67;;
14754;SDS011;7469;50.906;6.952;2023-03-23T10:36:03;1.80;;;0.80;;
14754;SDS011;7469;50.906;6.952;2023-03-23T10:38:37;0.90;;;0.57;;
14754;SDS011;7469;50.906;6.952;2023-03-23T10:41:11;1.27;;;0.57;;
14754;SDS011;7469;50.906;6.952;2023-03-23T10:43:40;0.50;;;0.50;;
14754;SDS011;7469;50.906;6.952;2023-03-23T10:46:11;0.77;;;0.77;;
14754;SDS011;7469;50.906;6.952;2023-03-23T10:48:49;2.00;;;0.60;;
14754;SDS011;7469;50.906;6.952;2023-03-23T10:51:19;1.90;;;0.90;;
14754;SDS011;7469;50.906;6.952;2023-03-23T10:53:55;0.90;;;0.80;;
14754;SDS011;7469;50.906;6.952;2023-03-23T10:56:24;1.07;;;0.90;;
14754;SDS011;7469;50.906;6.952;2023-03-23T10:58:53;1.43;;;0.70;;
14754;SDS011;7469;50.906;6.952;2023-03-23T11:01:28;1.93;;;0.60;;
14754;SDS011;7469;50.906;6.952;2023-03-23T11:03:56;1.23;;;0.60;;
14754;SDS011;7469;50.906;6.952;2023-03-23T11:06:27;1.23;;;0.73;;
14754;SDS011;7469;50.906;6.952;2023-03-23T11:09:00;1.47;;;0.90;;
14754;SDS011;7469;50.906;6.952;2023-03-23T11:11:30;1.70;;;0.70;;
14754;SDS011;7469;50.906;6.952;2023-03-23T11:13:59;2.47;;;0.60;;
14754;SDS011;7469;50.906;6.952;2023-03-23T11:16:27;0.77;;;0.53;;
14754;SDS011;7469;50.906;6.952;2023-03-23T11:18:57;0.63;;;0.50;;
14754;SDS011;7469;50.906;6.952;2023-03-23T11:21:25;1.77;;;0.60;;
14754;SDS011;7469;50.906;6.952;2023-03-23T11:23:54;1.63;;;0.80;;
14754;SDS011;7469;50.906;6.952;2023-03-23T11:26:26;2.30;;;1.10;;
14754;SDS011;7469;50.906;6.952;2023-03-23T11:28:56;3.30;;;1.07;;
14754;SDS011;7469;50.906;6.952;2023-03-23T11:31:27;0.60;;;0.60;;
14754;SDS011;7469;50.906;6.952;2023-03-23T11:33:57;3.40;;;0.60;;
14754;SDS011;7469;50.906;6.952;2023-03-23T11:36:30;0.67;;;0.67;;
14754;SDS011;7469;50.906;6.952;2023-03-23T11:38:59;1.43;;;0.70;;
14754;SDS011;7469;50.906;6.952;2023-03-23T11:41:31;1.43;;;0.90;;
14754;SDS011;7469;50.906;6.952;2023-03-23T11:44:03;2.80;;;0.67;;
14754;SDS011;7469;50.906;6.952;2023-03-23T11:46:38;1.60;;;0.73;;
14754;SDS011;7469;50.906;6.952;2023-03-23T11:49:10;0.70;;;0.70;;
14754;SDS011;7469;50.906;6.952;2023-03-23T11:51:46;0.50;;;0.47;;
14754;SDS011;7469;50.906;6.952;2023-03-23T11:54:17;0.67;;;0.40;;
14754;SDS011;7469;50.906;6.952;2023-03-23T11:56:51;0.57;;;0.50;;
14754;SDS011;7469;50.906;6.952;2023-03-23T11:59:26;0.53;;;0.53;;
14754;SDS011;7469;50.906;6.952;2023-03-23T12:01:56;0.50;;;0.50;;
14754;SDS011;7469;50.906;6.952;2023-03-23T12:04:32;0.53;;;0.53;;
14754;SDS011;7469;50.906;6.952;2023-03-23T12:10:16;1.10;;;0.70;;
14754;SDS011;7469;50.906;6.952;2023-03-23T12:12:54;0.77;;;0.67;;
14754;SDS011;7469;50.906;6.952;2023-03-23T12:15:30;1.83;;;0.80;;
14754;SDS011;7469;50.906;6.952;2023-03-23T12:18:04;2.80;;;0.90;;
14754;SDS011;7469;50.906;6.952;2023-03-23T12:20:40;0.50;;;0.50;;
14754;SDS011;7469;50.906;6.952;2023-03-23T12:23:20;2.03;;;0.60;;
14754;SDS011;7469;50.906;6.952;2023-03-23T12:25:59;0.80;;;0.63;;
14754;SDS011;7469;50.906;6.952;2023-03-23T12:29:02;2.43;;;0.70;;
14754;SDS011;7469;50.906;6.952;2023-03-23T12:31:41;1.77;;;0.73;;
14754;SDS011;7469;50.906;6.952;2023-03-23T12:34:17;2.40;;;1.13;;
14754;SDS011;7469;50.906;6.952;2023-03-23T12:36:58;2.23;;;1.00;;
14754;SDS011;7469;50.906;6.952;2023-03-23T12:42:34;2.83;;;0.90;;
14754;SDS011;7469;50.906;6.952;2023-03-23T12:45:14;2.77;;;1.10;;
14754;SDS011;7469;50.906;6.952;2023-03-23T12:47:49;2.20;;;1.10;;
14754;SDS011;7469;50.906;6.952;2023-03-23T12:50:20;1.40;;;1.00;;
14754;SDS011;7469;50.906;6.952;2023-03-23T12:52:54;2.27;;;0.90;;
14754;SDS011;7469;50.906;6.952;2023-03-23T12:55:27;2.13;;;1.03;;
14754;SDS011;7469;50.906;6.952;2023-03-23T12:57:59;3.20;;;1.00;;
14754;SDS011;7469;50.906;6.952;2023-03-23T13:00:34;3.07;;;0.73;;
14754;SDS011;7469;50.906;6.952;2023-03-23T13:03:16;4.83;;;1.30;;
14754;SDS011;7469;50.906;6.952;2023-03-23T13:05:48;2.23;;;1.30;;
14754;SDS011;7469;50.906;6.952;2023-03-23T13:08:21;5.30;;;0.73;;
14754;SDS011;7469;50.906;6.952;2023-03-23T13:10:53;0.60;;;0.50;;
14754;SDS011;7469;50.906;6.952;2023-03-23T13:13:24;2.20;;;0.80;;
14754;SDS011;7469;50.906;6.952;2023-03-23T13:16:00;2.47;;;0.97;;
14754;SDS011;7469;50.906;6.952;2023-03-23T13:18:34;1.90;;;0.90;;
14754;SDS011;7469;50.906;6.952;2023-03-23T13:21:11;2.40;;;0.90;;
14754;SDS011;7469;50.906;6.952;2023-03-23T13:23:44;2.03;;;1.00;;
14754;SDS011;7469;50.906;6.952;2023-03-23T13:26:14;3.43;;;1.20;;
14754;SDS011;7469;50.906;6.952;2023-03-23T13:31:35;2.47;;;0.80;;
14754;SDS011;7469;50.906;6.952;2023-03-23T13:34:04;2.13;;;0.87;;
14754;SDS011;7469;50.906;6.952;2023-03-23T13:36:38;2.97;;;1.00;;
14754;SDS011;7469;50.906;6.952;2023-03-23T13:39:16;1.17;;;0.73;;
14754;SDS011;7469;50.906;6.952;2023-03-23T13:41:46;2.00;;;1.10;;
14754;SDS011;7469;50.906;6.952;2023-03-23T13:44:15;1.20;;;1.10;;
14754;SDS011;7469;50.906;6.952;2023-03-23T13:46:55;4.83;;;1.10;;
14754;SDS011;7469;50.906;6.952;2023-03-23T13:49:24;2.50;;;1.27;;
14754;SDS011;7469;50.906;6.952;2023-03-23T13:51:58;0.97;;;0.80;;
14754;SDS011;7469;50.906;6.952;2023-03-23T13:54:42;4.40;;;1.20;;
14754;SDS011;7469;50.906;6.952;2023-03-23T13:57:23;1.37;;;0.83;;
14754;SDS011;7469;50.906;6.952;2023-03-23T13:59:57;1.40;;;0.90;;
14754;SDS011;7469;50.906;6.952;2023-03-23T14:02:32;5.27;;;1.20;;
14754;SDS011;7469;50.906;6.952;2023-03-23T14:05:11;1.63;;;1.20;;
14754;SDS011;7469;50.906;6.952;2023-03-23T14:07:55;3.50;;;1.23;;
14754;SDS011;7469;50.906;6.952;2023-03-23T14:10:25;2.03;;;1.10;;
14754;SDS011;7469;50.906;6.952;2023-03-23T14:12:58;2.20;;;1.10;;
14754;SDS011;7469;50.906;6.952;2023-03-23T14:15:28;3.43;;;1.50;;
14754;SDS011;7469;50.906;6.952;2023-03-23T14:17:57;4.70;;;1.40;;
14754;SDS011;7469;50.906;6.952;2023-03-23T14:20:30;2.60;;;1.43;;
14754;SDS011;7469;50.906;6.952;2023-03-23T14:22:59;2.50;;;1.20;;
14754;SDS011;7469;50.906;6.952;2023-03-23T14:25:27;2.47;;;1.00;;
14754;SDS011;7469;50.906;6.952;2023-03-23T14:27:57;2.93;;;1.10;;
14754;SDS011;7469;50.906;6.952;2023-03-23T14:30:25;3.37;;;1.30;;
14754;SDS011;7469;50.906;6.952;2023-03-23T14:32:54;3.70;;;1.30;;
14754;SDS011;7469;50.906;6.952;2023-03-23T14:35:34;4.03;;;1.30;;
14754;SDS011;7469;50.906;6.952;2023-03-23T14:38:03;2.57;;;1.03;;
14754;SDS011;7469;50.906;6.952;2023-03-23T14:40:33;1.50;;;1.20;;
14754;SDS011;7469;50.906;6.952;2023-03-23T14:43:00;1.80;;;0.93;;
14754;SDS011;7469;50.906;6.952;2023-03-23T14:45:27;4.23;;;1.17;;
14754;SDS011;7469;50.906;6.952;2023-03-23T14:47:56;4.70;;;1.40;;
14754;SDS011;7469;50.906;6.952;2023-03-23T14:50:28;2.53;;;0.97;;
14754;SDS011;7469;50.906;6.952;2023-03-23T14:52:57;6.70;;;1.50;;
14754;SDS011;7469;50.906;6.952;2023-03-23T14:55:26;4.00;;;1.47;;
14754;SDS011;7469;50.906;6.952;2023-03-23T14:57:56;3.27;;;1.40;;
14754;SDS011;7469;50.906;6.952;2023-03-23T15:00:35;1.33;;;1.03;;
14754;SDS011;7469;50.906;6.952;2023-03-23T15:03:05;2.63;;;1.20;;
14754;SDS011;7469;50.906;6.952;2023-03-23T15:05:41;1.47;;;1.17;;
14754;SDS011;7469;50.906;6.952;2023-03-23T15:08:12;2.47;;;1.07;;
14754;SDS011;7469;50.906;6.952;2023-03-23T15:10:41;2.70;;;1.30;;
14754;SDS011;7469;50.906;6.952;2023-03-23T15:13:10;2.13;;;1.20;;
14754;SDS011;7469;50.906;6.952;2023-03-23T15:15:38;1.77;;;1.13;;
14754;SDS011;7469;50.906;6.952;2023-03-23T15:18:16;5.43;;;1.43;;
14754;SDS011;7469;50.906;6.952;2023-03-23T15:20:56;1.33;;;0.93;;
14754;SDS011;7469;50.906;6.952;2023-03-23T15:23:26;3.57;;;1.10;;
14754;SDS011;7469;50.906;6.952;2023-03-23T15:25:55;2.57;;;1.30;;
14754;SDS011;7469;50.906;6.952;2023-03-23T15:28:28;2.27;;;1.40;;
14754;SDS011;7469;50.906;6.952;2023-03-23T15:30:57;1.67;;;1.20;;
14754;SDS011;7469;50.906;6.952;2023-03-23T15:33:33;1.17;;;1.03;;